Time,TemperatureF,DewpointF,PressureIn,WindDirection,WindDirectionDegrees,WindSpeedMPH,WindSpeedGustMPH,Humidity,HourlyPrecipIn,Conditions,Clouds,dailyrainin,SoftwareType,DateUTC
2013-01-21 00:02:00,25.0,19.0,30.15,ENE,75,0.0,0.0,77,0.00,,,0.02,,2013-01-21 07:02:00,
2013-01-21 00:12:00,25.0,19.0,30.15,ENE,75,0.0,0.0,77,0.00,,,0.02,,2013-01-21 07:12:00,
2013-01-21 00:22:00,25.0,19.0,30.15,ENE,75,0.0,0.0,77,0.00,,,0.02,,2013-01-21 07:22:00,
2013-01-21 00:32:00,25.0,19.0,30.15,ENE,75,0.0,0.0,77,0.00,,,0.02,,2013-01-21 07:32:00,
2013-01-21 00:42:00,25.0,19.0,30.15,ENE,75,0.0,0.0,77,0.00,,,0.02,,2013-01-21 07:42:00,
2013-01-21 00:53:00,25.0,19.0,30.14,ENE,75,0.0,0.0,78,0.00,,,0.02,,2013-01-21 07:53:00,
2013-01-21 01:02:00,25.0,19.0,30.14,ENE,75,0.0,0.0,78,0.00,,,0.02,,2013-01-21 08:02:00,
2013-01-21 01:13:00,25.0,19.0,30.14,ENE,75,0.0,0.0,78,0.00,,,0.02,,2013-01-21 08:13:00,
2013-01-21 01:22:00,25.0,19.0,30.14,ENE,75,0.0,0.0,79,0.00,,,0.02,,2013-01-21 08:22:00,
2013-01-21 01:32:00,25.0,19.0,30.14,ENE,75,0.0,0.0,79,0.00,,,0.02,,2013-01-21 08:32:00,
2013-01-21 01:43:00,25.0,19.0,30.14,ENE,75,0.0,0.0,79,0.00,,,0.02,,2013-01-21 08:43:00,
2013-01-21 01:53:00,25.0,19.0,30.14,ENE,75,0.0,1.0,78,0.00,,,0.02,,2013-01-21 08:53:00,
2013-01-21 02:02:00,25.0,19.0,30.14,ENE,75,0.0,1.0,78,0.00,,,0.02,,2013-01-21 09:02:00,
2013-01-21 02:12:00,25.0,19.0,30.14,ENE,75,0.0,1.0,78,0.00,,,0.02,,2013-01-21 09:12:00,
2013-01-21 02:22:00,24.0,18.0,30.14,ENE,75,0.0,0.0,79,0.00,,,0.02,,2013-01-21 09:22:00,
2013-01-21 02:32:00,24.0,18.0,30.14,ENE,75,0.0,0.0,79,0.00,,,0.02,,2013-01-21 09:32:00,
2013-01-21 02:42:00,24.0,18.0,30.14,ENE,75,0.0,0.0,79,0.00,,,0.02,,2013-01-21 09:42:00,
2013-01-21 02:53:00,24.0,18.0,30.14,ENE,75,0.0,0.0,79,0.00,,,0.02,,2013-01-21 09:53:00,
2013-01-21 03:01:00,24.0,18.0,30.14,ENE,75,0.0,0.0,79,0.00,,,0.02,,2013-01-21 10:01:00,
2013-01-21 03:12:00,24.0,18.0,30.14,ENE,75,0.0,0.0,79,0.00,,,0.02,,2013-01-21 10:12:00,
2013-01-21 03:22:00,24.0,19.0,30.14,ENE,75,0.0,0.0,80,0.00,,,0.02,,2013-01-21 10:22:00,
2013-01-21 03:32:00,24.0,19.0,30.14,ENE,75,0.0,0.0,80,0.00,,,0.02,,2013-01-21 10:32:00,
2013-01-21 03:43:00,24.0,19.0,30.14,ENE,75,0.0,0.0,80,0.00,,,0.02,,2013-01-21 10:43:00,
2013-01-21 03:52:00,24.0,19.0,30.13,ENE,75,0.0,0.0,80,0.00,,,0.02,,2013-01-21 10:52:00,
2013-01-21 04:02:00,24.0,19.0,30.13,ENE,75,0.0,0.0,80,0.00,,,0.02,,2013-01-21 11:02:00,
2013-01-21 04:12:00,24.0,19.0,30.13,ENE,75,0.0,0.0,80,0.00,,,0.02,,2013-01-21 11:12:00,
2013-01-21 04:22:00,24.0,19.0,30.13,ENE,75,0.0,0.0,81,0.00,,,0.02,,2013-01-21 11:22:00,
2013-01-21 04:32:00,24.0,19.0,30.13,ENE,75,0.0,0.0,81,0.00,,,0.02,,2013-01-21 11:32:00,
2013-01-21 04:43:00,24.0,19.0,30.13,ENE,75,0.0,0.0,81,0.00,,,0.02,,2013-01-21 11:43:00,
2013-01-21 04:53:00,24.0,19.0,30.13,ENE,75,0.0,0.0,80,0.00,,,0.02,,2013-01-21 11:53:00,
2013-01-21 05:02:00,24.0,19.0,30.13,ENE,75,0.0,0.0,80,0.00,,,0.02,,2013-01-21 12:02:00,
2013-01-21 05:12:00,24.0,19.0,30.13,ENE,75,0.0,0.0,80,0.00,,,0.02,,2013-01-21 12:12:00,
2013-01-21 05:22:00,24.0,19.0,30.13,ENE,75,0.0,0.0,80,0.00,,,0.02,,2013-01-21 12:22:00,
2013-01-21 05:32:00,24.0,19.0,30.13,ENE,75,0.0,0.0,80,0.00,,,0.02,,2013-01-21 12:32:00,
2013-01-21 05:43:00,24.0,19.0,30.13,ENE,75,0.0,0.0,80,0.00,,,0.02,,2013-01-21 12:43:00,
2013-01-21 05:53:00,23.0,18.0,30.14,ENE,75,0.0,0.0,81,0.00,,,0.02,,2013-01-21 12:53:00,
2013-01-21 06:02:00,23.0,18.0,30.14,ENE,75,0.0,0.0,81,0.00,,,0.02,,2013-01-21 13:02:00,
2013-01-21 06:12:00,23.0,18.0,30.14,ENE,75,0.0,0.0,81,0.00,,,0.02,,2013-01-21 13:12:00,
2013-01-21 06:22:00,21.0,16.0,30.12,ENE,75,0.0,0.0,82,0.00,,,0.02,,2013-01-21 13:22:00,
2013-01-21 06:32:00,21.0,16.0,30.12,ENE,75,0.0,0.0,82,0.00,,,0.02,,2013-01-21 13:32:00,
2013-01-21 06:43:00,21.0,16.0,30.12,ENE,75,0.0,0.0,82,0.00,,,0.02,,2013-01-21 13:43:00,
2013-01-21 06:53:00,21.0,17.0,30.12,ENE,75,0.0,0.0,83,0.00,,,0.02,,2013-01-21 13:53:00,
2013-01-21 07:02:00,21.0,17.0,30.12,ENE,75,0.0,0.0,83,0.00,,,0.02,,2013-01-21 14:02:00,
2013-01-21 07:12:00,21.0,17.0,30.12,ENE,75,0.0,0.0,83,0.00,,,0.02,,2013-01-21 14:12:00,
2013-01-21 07:22:00,21.0,17.0,30.10,ENE,75,0.0,1.0,84,0.00,,,0.02,,2013-01-21 14:22:00,
2013-01-21 07:32:00,21.0,17.0,30.10,ENE,75,0.0,1.0,84,0.00,,,0.02,,2013-01-21 14:32:00,
2013-01-21 07:43:00,21.0,17.0,30.10,ENE,75,0.0,1.0,84,0.00,,,0.02,,2013-01-21 14:43:00,
2013-01-21 07:53:00,21.0,17.0,30.10,ENE,75,0.0,0.0,83,0.00,,,0.02,,2013-01-21 14:53:00,
2013-01-21 08:02:00,21.0,17.0,30.10,ENE,75,0.0,0.0,83,0.00,,,0.02,,2013-01-21 15:02:00,
2013-01-21 08:12:00,21.0,17.0,30.10,ENE,75,0.0,0.0,83,0.00,,,0.02,,2013-01-21 15:12:00,
2013-01-21 08:22:00,21.0,17.0,30.09,ENE,75,0.0,0.0,83,0.00,,,0.02,,2013-01-21 15:22:00,
2013-01-21 08:32:00,21.0,17.0,30.09,ENE,75,0.0,0.0,83,0.00,,,0.02,,2013-01-21 15:32:00,
2013-01-21 08:43:00,21.0,17.0,30.09,ENE,75,0.0,0.0,83,0.00,,,0.02,,2013-01-21 15:43:00,
2013-01-21 08:53:00,21.0,17.0,30.09,ENE,75,0.0,0.0,83,0.00,,,0.02,,2013-01-21 15:53:00,
2013-01-21 09:02:00,21.0,17.0,30.09,ENE,75,0.0,0.0,83,0.00,,,0.02,,2013-01-21 16:02:00,
2013-01-21 09:12:00,21.0,17.0,30.09,ENE,75,0.0,0.0,83,0.00,,,0.02,,2013-01-21 16:12:00,
2013-01-21 09:23:00,22.0,17.0,30.09,ENE,75,0.0,0.0,82,0.00,,,0.02,,2013-01-21 16:23:00,
2013-01-21 09:32:00,22.0,17.0,30.09,ENE,75,0.0,0.0,82,0.00,,,0.02,,2013-01-21 16:32:00,
2013-01-21 09:43:00,22.0,17.0,30.09,ENE,75,0.0,0.0,82,0.00,,,0.02,,2013-01-21 16:43:00,
2013-01-21 09:53:00,24.0,19.0,30.11,ENE,75,0.0,0.0,80,0.00,,,0.02,,2013-01-21 16:53:00,
2013-01-21 10:12:00,24.0,19.0,30.11,ENE,75,0.0,0.0,80,0.00,,,0.02,,2013-01-21 17:12:00,
2013-01-21 10:22:00,27.0,20.0,30.12,SE,142,0.0,0.0,74,0.00,,,0.02,,2013-01-21 17:22:00,
2013-01-21 10:32:00,27.0,20.0,30.12,SE,142,0.0,0.0,74,0.00,,,0.02,,2013-01-21 17:32:00,
2013-01-21 10:43:00,27.0,20.0,30.12,SE,142,0.0,0.0,74,0.00,,,0.02,,2013-01-21 17:43:00,
2013-01-21 10:53:00,28.0,20.0,30.13,SE,142,0.0,0.0,71,0.00,,,0.02,,2013-01-21 17:53:00,
2013-01-21 11:02:00,28.0,20.0,30.13,SE,142,0.0,0.0,71,0.00,,,0.02,,2013-01-21 18:02:00,
2013-01-21 11:22:00,30.0,20.0,30.11,SE,142,0.0,0.0,65,0.00,,,0.02,,2013-01-21 18:22:00,
2013-01-21 11:33:00,30.0,20.0,30.11,SE,142,0.0,0.0,65,0.00,,,0.02,,2013-01-21 18:33:00,
2013-01-21 11:43:00,30.0,20.0,30.11,SE,142,0.0,0.0,65,0.00,,,0.02,,2013-01-21 18:43:00,
2013-01-21 11:52:00,31.0,21.0,30.10,SE,142,0.0,1.0,65,0.00,,,0.02,,2013-01-21 18:52:00,
2013-01-21 12:12:00,32.0,20.0,30.08,North,11,0.0,1.0,61,0.00,,,0.02,,2013-01-21 19:12:00,
2013-01-21 12:22:00,32.0,20.0,30.08,North,11,0.0,1.0,61,0.00,,,0.02,,2013-01-21 19:22:00,
2013-01-21 12:32:00,32.0,20.0,30.08,North,11,0.0,1.0,61,0.00,,,0.02,,2013-01-21 19:32:00,
2013-01-21 12:43:00,32.0,20.0,30.08,North,11,0.0,1.0,61,0.00,,,0.02,,2013-01-21 19:43:00,
2013-01-21 12:53:00,33.0,22.0,30.09,North,11,0.0,0.0,64,0.00,,,0.02,,2013-01-21 19:53:00,
2013-01-21 13:02:00,33.0,22.0,30.09,North,11,0.0,0.0,64,0.00,,,0.02,,2013-01-21 20:02:00,
2013-01-21 13:12:00,33.0,22.0,30.09,North,11,0.0,0.0,64,0.00,,,0.02,,2013-01-21 20:12:00,
2013-01-21 13:22:00,33.0,21.0,30.09,SSE,162,0.0,2.0,61,0.00,,,0.01,,2013-01-21 20:22:00,
2013-01-21 13:32:00,33.0,21.0,30.09,SSE,162,0.0,2.0,61,0.00,,,0.01,,2013-01-21 20:32:00,
2013-01-21 13:43:00,33.0,21.0,30.09,SSE,162,0.0,2.0,61,0.00,,,0.01,,2013-01-21 20:43:00,
2013-01-21 13:53:00,36.0,22.0,30.06,SSE,162,1.0,1.0,57,0.00,,,0.00,,2013-01-21 20:53:00,
2013-01-21 14:02:00,36.0,22.0,30.06,SSE,162,1.0,1.0,57,0.00,,,0.00,,2013-01-21 21:02:00,
2013-01-21 14:12:00,36.0,22.0,30.06,SSE,162,1.0,1.0,57,0.00,,,0.00,,2013-01-21 21:12:00,
2013-01-21 14:22:00,38.0,22.0,30.04,SSE,147,1.0,1.0,52,0.00,,,0.00,,2013-01-21 21:22:00,
2013-01-21 14:32:00,38.0,22.0,30.04,SSE,147,1.0,1.0,52,0.00,,,0.00,,2013-01-21 21:32:00,
2013-01-21 14:43:00,38.0,22.0,30.04,SSE,147,1.0,1.0,52,0.00,,,0.00,,2013-01-21 21:43:00,
2013-01-21 14:53:00,37.0,22.0,30.05,NE,49,0.0,3.0,54,0.00,,,0.00,,2013-01-21 21:53:00,
2013-01-21 15:02:00,37.0,22.0,30.05,NE,49,0.0,3.0,54,0.00,,,0.00,,2013-01-21 22:02:00,
2013-01-21 15:12:00,37.0,22.0,30.05,NE,49,0.0,3.0,54,0.00,,,0.00,,2013-01-21 22:12:00,
2013-01-21 15:22:00,36.0,22.0,30.05,East,97,0.0,1.0,56,0.00,,,0.00,,2013-01-21 22:22:00,
2013-01-21 15:32:00,36.0,22.0,30.05,East,97,0.0,1.0,56,0.00,,,0.00,,2013-01-21 22:32:00,
2013-01-21 15:43:00,36.0,22.0,30.05,East,97,0.0,1.0,56,0.00,,,0.00,,2013-01-21 22:43:00,
2013-01-21 15:52:00,35.0,22.0,30.05,East,97,0.0,1.0,58,0.00,,,0.00,,2013-01-21 22:52:00,
2013-01-21 16:02:00,35.0,22.0,30.05,East,97,0.0,1.0,58,0.00,,,0.00,,2013-01-21 23:02:00,
2013-01-21 16:12:00,35.0,22.0,30.05,East,97,0.0,1.0,58,0.00,,,0.00,,2013-01-21 23:12:00,
2013-01-21 16:22:00,34.0,21.0,30.05,East,97,0.0,0.0,59,0.00,,,0.00,,2013-01-21 23:22:00,
2013-01-21 16:32:00,34.0,21.0,30.05,East,97,0.0,0.0,59,0.00,,,0.00,,2013-01-21 23:32:00,
2013-01-21 16:43:00,34.0,21.0,30.05,East,97,0.0,0.0,59,0.00,,,0.00,,2013-01-21 23:43:00,
2013-01-21 16:53:00,32.0,20.0,30.03,East,97,0.0,1.0,60,0.00,,,0.00,,2013-01-21 23:53:00,
2013-01-21 17:02:00,32.0,20.0,30.03,East,97,0.0,1.0,60,0.00,,,0.00,,2013-01-22 00:02:00,
2013-01-21 17:12:00,32.0,20.0,30.03,East,97,0.0,1.0,60,0.00,,,0.00,,2013-01-22 00:12:00,
2013-01-21 17:22:00,30.0,19.0,30.04,NNW,342,0.0,0.0,64,0.00,,,0.00,,2013-01-22 00:22:00,
2013-01-21 17:32:00,30.0,19.0,30.04,NNW,342,0.0,0.0,64,0.00,,,0.00,,2013-01-22 00:32:00,
2013-01-21 17:43:00,30.0,19.0,30.04,NNW,342,0.0,0.0,64,0.00,,,0.00,,2013-01-22 00:43:00,
2013-01-21 17:53:00,27.0,18.0,30.04,NNW,342,0.0,1.0,69,0.00,,,0.00,,2013-01-22 00:53:00,
2013-01-21 18:02:00,27.0,18.0,30.04,NNW,342,0.0,1.0,69,0.00,,,0.00,,2013-01-22 01:02:00,
2013-01-21 18:12:00,27.0,18.0,30.04,NNW,342,0.0,1.0,69,0.00,,,0.00,,2013-01-22 01:12:00,
2013-01-21 18:22:00,27.0,19.0,30.04,NNW,342,0.0,1.0,71,0.00,,,0.00,,2013-01-22 01:22:00,
2013-01-21 18:32:00,27.0,19.0,30.04,NNW,342,0.0,1.0,71,0.00,,,0.00,,2013-01-22 01:32:00,
2013-01-21 18:43:00,27.0,19.0,30.04,NNW,342,0.0,1.0,71,0.00,,,0.00,,2013-01-22 01:43:00,
2013-01-21 18:52:00,25.0,17.0,30.02,NNW,342,0.0,0.0,72,0.00,,,0.00,,2013-01-22 01:52:00,
2013-01-21 19:02:00,25.0,17.0,30.02,NNW,342,0.0,0.0,72,0.00,,,0.00,,2013-01-22 02:02:00,
2013-01-21 19:12:00,25.0,17.0,30.02,NNW,342,0.0,0.0,72,0.00,,,0.00,,2013-01-22 02:12:00,
2013-01-21 19:22:00,25.0,17.0,30.01,NNW,342,0.0,1.0,71,0.00,,,0.00,,2013-01-22 02:22:00,
2013-01-21 19:32:00,25.0,17.0,30.01,NNW,342,0.0,1.0,71,0.00,,,0.00,,2013-01-22 02:32:00,
2013-01-21 19:43:00,25.0,17.0,30.01,NNW,342,0.0,1.0,71,0.00,,,0.00,,2013-01-22 02:43:00,
2013-01-21 19:53:00,24.0,17.0,30.02,NNW,342,0.0,0.0,73,0.00,,,0.00,,2013-01-22 02:53:00,
2013-01-21 20:02:00,24.0,17.0,30.02,NNW,342,0.0,0.0,73,0.00,,,0.00,,2013-01-22 03:02:00,
2013-01-21 20:12:00,24.0,17.0,30.02,NNW,342,0.0,0.0,73,0.00,,,0.00,,2013-01-22 03:12:00,
2013-01-21 20:22:00,23.0,15.0,30.02,NNW,342,0.0,0.0,72,0.00,,,0.00,,2013-01-22 03:22:00,
2013-01-21 20:32:00,23.0,15.0,30.02,NNW,342,0.0,0.0,72,0.00,,,0.00,,2013-01-22 03:32:00,
2013-01-21 20:42:00,23.0,15.0,30.02,NNW,342,0.0,0.0,72,0.00,,,0.00,,2013-01-22 03:42:00,
2013-01-21 20:52:00,23.0,15.0,30.02,NNW,339,0.0,2.0,71,0.00,,,0.00,,2013-01-22 03:52:00,
2013-01-21 21:02:00,23.0,15.0,30.02,NNW,339,0.0,2.0,71,0.00,,,0.00,,2013-01-22 04:02:00,
2013-01-21 21:12:00,23.0,15.0,30.02,NNW,339,0.0,2.0,71,0.00,,,0.00,,2013-01-22 04:12:00,
2013-01-21 21:22:00,24.0,15.0,30.01,NNW,339,0.0,2.0,68,0.00,,,0.00,,2013-01-22 04:22:00,
2013-01-21 21:32:00,24.0,15.0,30.01,NNW,339,0.0,2.0,68,0.00,,,0.00,,2013-01-22 04:32:00,
2013-01-21 21:42:00,24.0,15.0,30.01,NNW,339,0.0,2.0,68,0.00,,,0.00,,2013-01-22 04:42:00,
2013-01-21 21:52:00,23.0,14.0,30.02,NNW,339,0.0,1.0,68,0.00,,,0.00,,2013-01-22 04:52:00,
2013-01-21 22:12:00,23.0,14.0,30.02,NNW,339,0.0,1.0,68,0.00,,,0.00,,2013-01-22 05:12:00,
2013-01-21 22:22:00,23.0,14.0,30.02,NNW,339,0.0,0.0,67,0.00,,,0.00,,2013-01-22 05:22:00,
2013-01-21 22:32:00,23.0,14.0,30.02,NNW,339,0.0,0.0,67,0.00,,,0.00,,2013-01-22 05:32:00,
2013-01-21 22:43:00,23.0,14.0,30.02,NNW,339,0.0,0.0,67,0.00,,,0.00,,2013-01-22 05:43:00,
2013-01-21 22:52:00,22.0,13.0,30.02,NNW,339,0.0,2.0,69,0.00,,,0.00,,2013-01-22 05:52:00,
2013-01-21 23:02:00,22.0,13.0,30.02,NNW,339,0.0,2.0,69,0.00,,,0.00,,2013-01-22 06:02:00,
2013-01-21 23:12:00,22.0,13.0,30.02,NNW,339,0.0,2.0,69,0.00,,,0.00,,2013-01-22 06:12:00,
2013-01-21 23:22:00,21.0,13.0,30.03,NNW,339,0.0,1.0,71,0.00,,,0.00,,2013-01-22 06:22:00,
2013-01-21 23:32:00,21.0,13.0,30.03,NNW,339,0.0,1.0,71,0.00,,,0.00,,2013-01-22 06:32:00,
2013-01-21 23:43:00,21.0,13.0,30.03,NNW,339,0.0,1.0,71,0.00,,,0.00,,2013-01-22 06:43:00,
2013-01-21 23:52:00,20.0,13.0,30.03,NNW,339,0.0,0.0,73,0.00,,,0.00,,2013-01-22 06:52:00,